Winnie, Texas
Current Conditions -  °F | °C
As of 3:35 PM on Thursday 18 Dec 2014 (Local Time) from KBMT Reporting Station
Haze Haze  
Wind Chill: 59°   Ceiling: 500
Heat Index: 59°   Visibility: 5mi
Dew Point: 58°   Wind: 6mph
Humidity: 94%   Direction: 50°NE
Pressure: 30.06"   Gusts: NA
Location:  29.82°N, 94.38°W
Report Text: KBMT 182135Z AUTO 05005KT 5SM BR OVC005 15/14 A3006 RMK AO2 T01510142
Loading
Personal Weather Stations






























Interactive Weather Map New forecast layout! Learn more

10-Day Weather Forecast

Advertisements
Track Severe Weather on mobile